Latest Weather Observations for Sellicks Hill

IDS60901

Issued at 1:51 am CDT Saturday 31 January 2015 (issued every 10 minutes, with the page automatically refreshed every 10 minutes)

About weather observations | Map of Adelaide area stations | Latest observations for Adelaide area | Other Formats
Station Details ID: 023886 Name: MOUNT TERRIBLE RADAR Lat: -35.33 Lon: 138.50 Height: 385.7 m
Data from the previous 72 hours. | See also: Recent months for locations in South Australia
Date/Time
CDT
Tmp

°C
App
Tmp
°C
Dew
Point
°C
Rel
Hum
%
Delta-T

°C
Wind Press
QNH
hPa
Press
MSL
hPa
Rain
since
9 am
mm
Dir
 
Spd
km/h
Gust
km/h
Spd
kts
Gust
kts
31/01:30am - - - - - SE 39 44 21 24 - - -
31/01:00am - - - - - SE 44 54 24 29 - - -
31/12:30am - - - - - SSE 46 56 25 30 - - -
31/12:00am - - - - - SSE 48 56 26 30 - - -
 
Date/Time
CDT
Tmp

°C
App
Tmp
°C
Dew
Point
°C
Rel
Hum
%
Delta-T

°C
Wind Press
QNH
hPa
Press
MSL
hPa
Rain
since
9 am
mm
Dir
 
Spd
km/h
Gust
km/h
Spd
kts
Gust
kts
30/11:30pm - - - - - SSE 48 56 26 30 - - -
30/11:00pm - - - - - SSE 44 52 24 28 - - -
30/10:30pm - - - - - SSE 48 57 26 31 - - -
30/10:00pm - - - - - SSE 52 59 28 32 - - -
30/09:30pm - - - - - SSE 52 63 28 34 - - -
30/09:00pm - - - - - SSE 48 54 26 29 - - -
30/08:30pm - - - - - SSE 46 54 25 29 - - -
30/08:00pm - - - - - SSE 48 59 26 32 - - -
30/07:30pm - - - - - SSE 52 63 28 34 - - -
30/07:00pm - - - - - SSE 48 54 26 29 - - -
30/06:30pm - - - - - SSE 48 59 26 32 - - -
30/06:00pm - - - - - SSE 50 57 27 31 - - -
30/05:30pm - - - - - SSE 46 54 25 29 - - -
30/05:00pm - - - - - SSE 41 50 22 27 - - -
30/04:30pm - - - - - SSE 39 44 21 24 - - -
30/04:00pm - - - - - SSE 43 50 23 27 - - -
30/03:30pm - - - - - SSE 39 46 21 25 - - -
30/03:00pm - - - - - SE 41 52 22 28 - - -
30/02:30pm - - - - - SSE 44 56 24 30 - - -
30/02:00pm - - - - - SSE 44 54 24 29 - - -
30/01:30pm - - - - - SSE 41 50 22 27 - - -
30/01:00pm - - - - - SSE 39 50 21 27 - - -
30/12:30pm - - - - - SE 26 39 14 21 - - -
30/12:00pm - - - - - SE 26 39 14 21 - - -
30/11:30am - - - - - SE 28 41 15 22 - - -
30/11:00am - - - - - SE 30 39 16 21 - - -
30/10:30am - - - - - ESE 24 35 13 19 - - -
30/10:00am - - - - - SE 43 54 23 29 - - -
30/09:30am - - - - - SE 48 59 26 32 - - -
30/09:00am - - - - - SE 44 56 24 30 - - -
30/08:30am - - - - - SE 41 56 22 30 - - -
30/08:00am - - - - - SE 39 52 21 28 - - -
30/07:30am - - - - - SE 43 50 23 27 - - -
30/07:00am - - - - - SE 41 48 22 26 - - -
30/06:30am - - - - - SE 37 46 20 25 - - -
30/06:00am - - - - - SE 37 43 20 23 - - -
30/05:30am - - - - - SE 39 44 21 24 - - -
30/05:00am - - - - - SE 39 46 21 25 - - -
30/04:30am - - - - - SE 39 48 21 26 - - -
30/04:00am - - - - - SE 35 43 19 23 - - -
30/03:30am - - - - - SE 35 41 19 22 - - -
30/03:00am - - - - - SE 30 37 16 20 - - -
30/02:30am - - - - - SE 33 37 18 20 - - -
30/02:00am - - - - - SSE 35 39 19 21 - - -
30/01:30am - - - - - SSE 32 35 17 19 - - -
30/01:00am - - - - - SSE 30 37 16 20 - - -
30/12:30am - - - - - SSE 32 39 17 21 - - -
30/12:00am - - - - - SSE 32 41 17 22 - - -
 
Date/Time
CDT
Tmp

°C
App
Tmp
°C
Dew
Point
°C
Rel
Hum
%
Delta-T

°C
Wind Press
QNH
hPa
Press
MSL
hPa
Rain
since
9 am
mm
Dir
 
Spd
km/h
Gust
km/h
Spd
kts
Gust
kts
29/11:30pm - - - - - SSE 33 39 18 21 - - -
29/11:00pm - - - - - SSE 33 41 18 22 - - -
29/10:30pm - - - - - SSE 35 43 19 23 - - -
29/10:00pm - - - - - SSE 33 43 18 23 - - -
29/09:30pm - - - - - SSE 37 44 20 24 - - -
29/09:00pm - - - - - SSE 37 46 20 25 - - -
29/08:30pm - - - - - SSE 35 46 19 25 - - -
29/08:00pm - - - - - SSE 44 52 24 28 - - -
29/07:30pm - - - - - SSE 37 46 20 25 - - -
29/07:00pm - - - - - SSE 37 46 20 25 - - -
29/06:30pm - - - - - SSE 43 50 23 27 - - -
29/06:00pm - - - - - SSE 43 52 23 28 - - -
29/05:30pm - - - - - SSE 41 52 22 28 - - -
29/05:00pm - - - - - SSE 44 54 24 29 - - -
29/04:30pm - - - - - SSE 43 48 23 26 - - -
29/04:00pm - - - - - SSE 41 48 22 26 - - -
29/03:30pm - - - - - SSE 35 44 19 24 - - -
29/03:00pm - - - - - SE 28 43 15 23 - - -
29/02:30pm - - - - - SE 30 37 16 20 - - -
29/02:02pm - - - - - SE 30 52 16 28 - - -
29/02:00pm - - - - - SE 28 44 15 24 - - -
29/01:30pm - - - - - ESE 30 44 16 24 - - -
29/01:11pm - - - - - ESE 28 46 15 25 - - -
29/01:00pm - - - - - SE 32 44 17 24 - - -
29/12:30pm - - - - - ESE 26 43 14 23 - - -
29/12:00pm - - - - - ESE 26 39 14 21 - - -
29/11:30am - - - - - ESE 20 33 11 18 - - -
29/11:00am - - - - - ESE 20 35 11 19 - - -
29/10:30am - - - - - ESE 26 43 14 23 - - -
29/10:00am - - - - - ESE 33 48 18 26 - - -
29/09:53am - - - - - ESE 35 56 19 30 - - -
29/09:30am - - - - - ESE 39 54 21 29 - - -
29/09:01am - - - - - SE 39 57 21 31 - - -
29/09:00am - - - - - SE 41 57 22 31 - - -
29/08:30am - - - - - SE 46 56 25 30 - - -
29/08:00am - - - - - SE 44 54 24 29 - - -
29/07:30am - - - - - SE 41 48 22 26 - - -
29/07:00am - - - - - SE 41 48 22 26 - - -
29/06:30am - - - - - SE 39 43 21 23 - - -
29/06:00am - - - - - SE 30 35 16 19 - - -
29/05:30am - - - - - SE 30 39 16 21 - - -
29/05:00am - - - - - SE 32 39 17 21 - - -
29/04:30am - - - - - SE 39 46 21 25 - - -
29/04:00am - - - - - SE 41 50 22 27 - - -
29/03:30am - - - - - SE 33 39 18 21 - - -
29/03:00am - - - - - SE 32 37 17 20 - - -
29/02:30am - - - - - SE 30 35 16 19 - - -
29/02:00am - - - - - SE 30 37 16 20 - - -
29/01:30am - - - - - SE 39 48 21 26 - - -
29/01:00am - - - - - SSE 39 50 21 27 - - -
29/12:30am - - - - - SSE 33 43 18 23 - - -
29/12:00am - - - - - SSE 37 50 20 27 - - -
 
Date/Time
CDT
Tmp

°C
App
Tmp
°C
Dew
Point
°C
Rel
Hum
%
Delta-T

°C
Wind Press
QNH
hPa
Press
MSL
hPa
Rain
since
9 am
mm
Dir
 
Spd
km/h
Gust
km/h
Spd
kts
Gust
kts
28/11:30pm - - - - - SSE 39 48 21 26 - - -
28/11:00pm - - - - - SSE 39 50 21 27 - - -
28/10:30pm - - - - - SSE 37 50 20 27 - - -
28/10:00pm - - - - - SSE 39 50 21 27 - - -
28/09:30pm - - - - - SSE 43 56 23 30 - - -
28/09:00pm - - - - - SSE 39 48 21 26 - - -
28/08:30pm - - - - - SSE 39 52 21 28 - - -
28/08:00pm - - - - - SSE 46 57 25 31 - - -
28/07:30pm - - - - - SSE 52 61 28 33 - - -
28/07:00pm - - - - - SSE 54 65 29 35 - - -
28/06:30pm - - - - - SSE 57 67 31 36 - - -
28/06:00pm - - - - - SSE 52 61 28 33 - - -
28/05:30pm - - - - - SSE 54 63 29 34 - - -
28/05:00pm - - - - - SSE 54 65 29 35 - - -
28/04:30pm - - - - - SSE 59 67 32 36 - - -
28/04:00pm - - - - - SSE 56 65 30 35 - - -
28/03:30pm - - - - - SSE 59 70 32 38 - - -
28/03:00pm - - - - - SSE 65 76 35 41 - - -
28/02:30pm - - - - - SSE 63 76 34 41 - - -
28/02:00pm - - - - - SSE 61 74 33 40 - - -
28/01:30pm - - - - - SSE 56 69 30 37 - - -
28/01:00pm - - - - - SSE 56 69 30 37 - - -
28/12:30pm - - - - - SSE 54 65 29 35 - - -
28/12:00pm - - - - - SSE 54 70 29 38 - - -
28/11:33am - - - - - SE 57 76 31 41 - - -
28/11:30am - - - - - SE 59 76 32 41 - - -
28/11:00am - - - - - SE 59 72 32 39 - - -
28/10:30am - - - - - SE 69 87 37 47 - - -
28/10:16am - - - - - SE 65 83 35 45 - - -
28/10:00am - - - - - SE 63 80 34 43 - - -
28/09:53am - - - - - SE 59 78 32 42 - - -
28/09:30am - - - - - SE 54 69 29 37 - - -
28/09:00am - - - - - SE 48 59 26 32 - - -
28/08:47am - - - - - SE 48 67 26 36 - - -
28/08:30am - - - - - SE 52 69 28 37 - - -
28/08:00am - - - - - SE 50 65 27 35 - - -
28/07:30am - - - - - SE 56 69 30 37 - - -
28/07:00am - - - - - SE 59 76 32 41 - - -
28/06:30am - - - - - SE 59 70 32 38 - - -
28/06:00am - - - - - SE 50 61 27 33 - - -
28/05:30am - - - - - SE 44 54 24 29 - - -
28/05:00am - - - - - SE 35 48 19 26 - - -
28/04:30am - - - - - SE 33 44 18 24 - - -
28/04:00am - - - - - SE 30 41 16 22 - - -
28/03:30am - - - - - SSE 30 39 16 21 - - -
28/03:00am - - - - - SSE 37 50 20 27 - - -
28/02:30am - - - - - SSE 35 44 19 24 - - -
28/02:00am - - - - - SSE 37 52 20 28 - - -

Latest Capital City Observations: Canberra | Sydney | Melbourne | Brisbane | Adelaide | Perth | Hobart | Darwin

Other Formats:

Comma delimited format used in spreadsheet applications
http://www.bom.gov.au/fwo/IDS60901/IDS60901.95679.axf

JavaScript Object Notation format (JSON) in row-major order
http://www.bom.gov.au/fwo/IDS60901/IDS60901.95679.json